Forside
METAR-TAF:

METAR-TAF

Lufthavne :

Tjita, Rusland

Breddekreds: 52-05N, længdekreds: 113-29E, højde: 685 m

Aktuelle vejr

Denne rapport blev lavet for 32 minutter siden, kl. 20:30 UTC
Vind 4 kt fra nord
Temperatur 13°C
Fugtighed 94%
Tryk 1017 hPa
Sigt 10 km eller mere

METAR: UIAA 142030Z 35002MPS 9999 NSC 13/12 Q1017 R29/70D NOSIG RMK QFE704/0939

Tid: 06:02 (21:02 UTC)

Vejrudsigter

Denne rapport blev lavet for 1 time og 2 minutter siden, kl. 20:00 UTC
Foreløbig gælder fra 14 på 21 UTC til 15 på 21 UTC
Vind 6 kt fra nordnordøst
Sigt 10 km eller mere
Brudte skyer i en højde af 3000 ft, Cumulonimbus.
Midlertidig
fra 15 på 04 UTC til 15 på 14 UTC
Vind 12 kt fra varierende retninger
tordenbyger, let regn
ændring
fra 15 på 14 UTC til 15 på 16 UTC
Vind 12 kt fra vest med vindstød på up til 23 kt

TAF: UIAA 142000Z 1421/1521 02003MPS 9999 BKN030CB TEMPO 1504/1514 VRB06MPS -TSRA BECMG 1514/1516 28006G12MPS

Vejrobservationer og prognoser fra mere end 4000 lufthavne (METAR og TAF).

De gule og røde prikker repræsenterer de meteorologiske stationer.

Flyt musen over at se navnet på stationen.

Så klik over at se vejr observationer og prognoser.

At skifte det kort: Klik på de grønne knapper med et sort kors for at zoome ind; på den grønne knap med en bindestreg for at zoome ud; eller på de grønne pile for tilstødende kort.


METAR-TAF: